Terminal Aerodrome Forecast
Issued by NWS Amarillo, TX

Current Version | Previous Version | Text Only | Print | Product List | Glossary On
Versions: 1 2 3 4 5 6 7 8 9 10 11 12 13 14 15 16 17 18 19 20 21 22 23 24
000
FTUS44 KAMA 201800 AAA
TAFGUY
TAF AMD
KGUY 201851Z 2019/2118 19010KT P6SM SCT200
     FM210000 19005KT P6SM SCT200
     FM210600 23005KT 5SM BR BKN150
     FM211500 28007KT P6SM SCT150=

USA.gov is the U.S. government's official web portal to all federal, state and local government web resources and services.